sensor_id;sensor_type;location;lat;lon;timestamp;pressure;altitude;pressure_sealevel;temperature;humidity
70445;BME280;57902;49.638;11.070;2023-02-17T00:00:12;99026.03;;;7.57;76.97
70445;BME280;57902;49.638;11.070;2023-02-17T00:02:39;99030.28;;;7.61;76.71
70445;BME280;57902;49.638;11.070;2023-02-17T00:05:05;99031.97;;;7.62;76.83
70445;BME280;57902;49.638;11.070;2023-02-17T00:07:32;99027.72;;;7.62;76.75
70445;BME280;57902;49.638;11.070;2023-02-17T00:09:59;99030.28;;;7.61;77.07
70445;BME280;57902;49.638;11.070;2023-02-17T00:12:25;99032.00;;;7.59;76.80
70445;BME280;57902;49.638;11.070;2023-02-17T00:14:52;99034.53;;;7.63;76.65
70445;BME280;57902;49.638;11.070;2023-02-17T00:17:18;99035.41;;;7.61;76.68
70445;BME280;57902;49.638;11.070;2023-02-17T00:19:45;99031.97;;;7.62;76.40
70445;BME280;57902;49.638;11.070;2023-02-17T00:22:11;99025.06;;;7.73;76.36
70445;BME280;57902;49.638;11.070;2023-02-17T00:24:38;99034.53;;;7.63;76.88
70445;BME280;57902;49.638;11.070;2023-02-17T00:27:05;99031.09;;;7.67;76.92
70445;BME280;57902;49.638;11.070;2023-02-17T00:29:32;99032.84;;;7.61;76.74
70445;BME280;57902;49.638;11.070;2023-02-17T00:31:58;99032.00;;;7.59;77.21
70445;BME280;57902;49.638;11.070;2023-02-17T00:34:25;99033.72;;;7.60;77.04
70445;BME280;57902;49.638;11.070;2023-02-17T00:36:53;99029.44;;;7.56;77.44
70445;BME280;57902;49.638;11.070;2023-02-17T00:39:23;99034.53;;;7.60;76.38
70445;BME280;57902;49.638;11.070;2023-02-17T00:41:49;99026.84;;;7.62;76.50
70445;BME280;57902;49.638;11.070;2023-02-17T00:44:18;99030.25;;;7.67;76.19
70445;BME280;57902;49.638;11.070;2023-02-17T00:46:45;99024.25;;;7.68;75.91
70445;BME280;57902;49.638;11.070;2023-02-17T00:49:17;99019.13;;;7.69;75.81
70445;BME280;57902;49.638;11.070;2023-02-17T00:51:44;99026.00;;;7.61;76.35
70445;BME280;57902;49.638;11.070;2023-02-17T00:54:12;99024.31;;;7.57;76.56
70445;BME280;57902;49.638;11.070;2023-02-17T00:56:39;99022.53;;;7.68;75.73
70445;BME280;57902;49.638;11.070;2023-02-17T00:59:06;99010.56;;;7.64;76.26
70445;BME280;57902;49.638;11.070;2023-02-17T01:01:33;99016.63;;;7.56;76.67
70445;BME280;57902;49.638;11.070;2023-02-17T01:04:00;99016.56;;;7.62;76.21
70445;BME280;57902;49.638;11.070;2023-02-17T01:06:30;99019.19;;;7.52;76.60
70445;BME280;57902;49.638;11.070;2023-02-17T01:08:56;99021.78;;;7.51;77.10
70445;BME280;57902;49.638;11.070;2023-02-17T01:11:28;99032.06;;;7.46;77.07
70445;BME280;57902;49.638;11.070;2023-02-17T01:13:58;99026.09;;;7.47;77.06
70445;BME280;57902;49.638;11.070;2023-02-17T01:16:29;99020.94;;;7.49;76.82
70445;BME280;57902;49.638;11.070;2023-02-17T01:18:55;99018.34;;;7.53;76.52
70445;BME280;57902;49.638;11.070;2023-02-17T01:21:24;99010.69;;;7.43;76.69
70445;BME280;57902;49.638;11.070;2023-02-17T01:23:53;99022.69;;;7.42;77.09
70445;BME280;57902;49.638;11.070;2023-02-17T01:26:24;99009.00;;;7.42;77.30
70445;BME280;57902;49.638;11.070;2023-02-17T01:28:52;99015.84;;;7.40;76.97
70445;BME280;57902;49.638;11.070;2023-02-17T01:31:20;99002.19;;;7.34;77.06
70445;BME280;57902;49.638;11.070;2023-02-17T01:33:47;99004.72;;;7.42;76.54
70445;BME280;57902;49.638;11.070;2023-02-17T01:36:16;98996.22;;;7.37;77.12
70445;BME280;57902;49.638;11.070;2023-02-17T01:38:43;98995.34;;;7.36;76.99
70445;BME280;57902;49.638;11.070;2023-02-17T01:41:13;98982.50;;;7.38;76.97
70445;BME280;57902;49.638;11.070;2023-02-17T01:43:40;98972.19;;;7.44;76.55
70445;BME280;57902;49.638;11.070;2023-02-17T01:46:07;98977.34;;;7.43;76.38
70445;BME280;57902;49.638;11.070;2023-02-17T01:48:42;98977.34;;;7.41;76.13
70445;BME280;57902;49.638;11.070;2023-02-17T01:51:19;98971.44;;;7.34;76.34
70445;BME280;57902;49.638;11.070;2023-02-17T01:53:54;98960.28;;;7.40;76.25
70445;BME280;57902;49.638;11.070;2023-02-17T01:56:23;98956.84;;;7.41;76.09
70445;BME280;57902;49.638;11.070;2023-02-17T01:58:57;98962.84;;;7.42;75.74
70445;BME280;57902;49.638;11.070;2023-02-17T02:01:27;98962.72;;;7.56;75.11
70445;BME280;57902;49.638;11.070;2023-02-17T02:03:54;98962.81;;;7.46;75.99
70445;BME280;57902;49.638;11.070;2023-02-17T02:06:24;98964.47;;;7.52;75.20
70445;BME280;57902;49.638;11.070;2023-02-17T02:11:28;98960.19;;;7.52;75.91
70445;BME280;57902;49.638;11.070;2023-02-17T02:13:55;98963.59;;;7.56;76.63
70445;BME280;57902;49.638;11.070;2023-02-17T02:16:28;98961.06;;;7.47;78.83
70445;BME280;57902;49.638;11.070;2023-02-17T02:19:03;98951.69;;;7.41;79.69
70445;BME280;57902;49.638;11.070;2023-02-17T02:24:26;98941.53;;;7.29;80.90
70445;BME280;57902;49.638;11.070;2023-02-17T02:35:20;98941.56;;;7.26;80.57
70445;BME280;57902;49.638;11.070;2023-02-17T02:37:58;98943.25;;;7.24;80.98
70445;BME280;57902;49.638;11.070;2023-02-17T02:40:30;98941.56;;;7.26;80.44
70445;BME280;57902;49.638;11.070;2023-02-17T02:43:00;98939.81;;;7.26;80.28
70445;BME280;57902;49.638;11.070;2023-02-17T02:45:27;98938.16;;;7.19;81.14
70445;BME280;57902;49.638;11.070;2023-02-17T02:47:56;98932.13;;;7.25;81.09
70445;BME280;57902;49.638;11.070;2023-02-17T02:50:56;98928.75;;;7.21;81.80
70445;BME280;57902;49.638;11.070;2023-02-17T02:53:49;98927.94;;;7.14;83.32
70445;BME280;57902;49.638;11.070;2023-02-17T02:56:31;98931.34;;;7.13;83.17
70445;BME280;57902;49.638;11.070;2023-02-17T03:01:41;98927.97;;;7.07;84.23
70445;BME280;57902;49.638;11.070;2023-02-17T03:04:30;98927.13;;;7.08;84.20
70445;BME280;57902;49.638;11.070;2023-02-17T03:07:07;98928.00;;;7.04;86.00
70445;BME280;57902;49.638;11.070;2023-02-17T03:09:35;98925.44;;;7.02;86.72
70445;BME280;57902;49.638;11.070;2023-02-17T03:12:02;98936.56;;;6.96;88.64
70445;BME280;57902;49.638;11.070;2023-02-17T03:14:35;98934.88;;;6.91;90.06
70445;BME280;57902;49.638;11.070;2023-02-17T03:17:03;98938.31;;;6.87;91.56
70445;BME280;57902;49.638;11.070;2023-02-17T03:19:30;98942.63;;;6.81;92.74
70445;BME280;57902;49.638;11.070;2023-02-17T03:21:58;98930.66;;;6.77;93.12
70445;BME280;57902;49.638;11.070;2023-02-17T03:24:26;98929.81;;;6.75;93.53
70445;BME280;57902;49.638;11.070;2023-02-17T03:26:52;98926.41;;;6.70;95.27
70445;BME280;57902;49.638;11.070;2023-02-17T03:29:19;98923.03;;;6.70;94.55
70445;BME280;57902;49.638;11.070;2023-02-17T03:31:45;98925.59;;;6.68;95.07
70445;BME280;57902;49.638;11.070;2023-02-17T03:34:12;98930.69;;;6.63;95.83
70445;BME280;57902;49.638;11.070;2023-02-17T03:36:38;98932.41;;;6.63;96.06
70445;BME280;57902;49.638;11.070;2023-02-17T03:39:06;98929.84;;;6.69;94.77
70445;BME280;57902;49.638;11.070;2023-02-17T03:41:32;98934.13;;;6.67;95.28
70445;BME280;57902;49.638;11.070;2023-02-17T03:43:59;98928.16;;;6.67;95.31
70445;BME280;57902;49.638;11.070;2023-02-17T03:46:25;98931.56;;;6.62;97.58
70445;BME280;57902;49.638;11.070;2023-02-17T03:48:52;98930.72;;;6.60;99.23
70445;BME280;57902;49.638;11.070;2023-02-17T03:51:20;98933.28;;;6.59;98.97
70445;BME280;57902;49.638;11.070;2023-02-17T03:53:48;98924.78;;;6.47;100.00
70445;BME280;57902;49.638;11.070;2023-02-17T03:56:15;98923.09;;;6.45;100.00
70445;BME280;57902;49.638;11.070;2023-02-17T03:58:43;98926.50;;;6.45;100.00
70445;BME280;57902;49.638;11.070;2023-02-17T04:01:11;98926.50;;;6.42;100.00
70445;BME280;57902;49.638;11.070;2023-02-17T04:03:39;98926.53;;;6.36;100.00
70445;BME280;57902;49.638;11.070;2023-02-17T04:06:06;98921.41;;;6.30;100.00
70445;BME280;57902;49.638;11.070;2023-02-17T04:08:34;98918.00;;;6.25;100.00
70445;BME280;57902;49.638;11.070;2023-02-17T04:11:02;98915.44;;;6.20;100.00
70445;BME280;57902;49.638;11.070;2023-02-17T04:13:29;98909.50;;;6.20;100.00
70445;BME280;57902;49.638;11.070;2023-02-17T04:15:55;98907.78;;;6.22;100.00
70445;BME280;57902;49.638;11.070;2023-02-17T04:18:22;98902.63;;;6.26;100.00
70445;BME280;57902;49.638;11.070;2023-02-17T04:20:50;98899.22;;;6.26;100.00
70445;BME280;57902;49.638;11.070;2023-02-17T04:23:16;98902.63;;;6.26;100.00
70445;BME280;57902;49.638;11.070;2023-02-17T04:25:43;98907.75;;;6.28;100.00
70445;BME280;57902;49.638;11.070;2023-02-17T04:28:11;98904.34;;;6.27;100.00
70445;BME280;57902;49.638;11.070;2023-02-17T04:30:38;98903.47;;;6.25;100.00
70445;BME280;57902;49.638;11.070;2023-02-17T04:33:05;98897.53;;;6.25;100.00
70445;BME280;57902;49.638;11.070;2023-02-17T04:35:31;98902.63;;;6.26;100.00
70445;BME280;57902;49.638;11.070;2023-02-17T04:37:58;98901.78;;;6.27;100.00
70445;BME280;57902;49.638;11.070;2023-02-17T04:40:24;98900.06;;;6.29;100.00
70445;BME280;57902;49.638;11.070;2023-02-17T04:42:51;98897.47;;;6.46;100.00
70445;BME280;57902;49.638;11.070;2023-02-17T04:45:17;98905.13;;;6.53;100.00
70445;BME280;57902;49.638;11.070;2023-02-17T04:47:44;98889.72;;;6.62;100.00
70445;BME280;57902;49.638;11.070;2023-02-17T04:50:10;98888.00;;;6.69;100.00
70445;BME280;57902;49.638;11.070;2023-02-17T04:52:37;98885.41;;;6.72;100.00
70445;BME280;57902;49.638;11.070;2023-02-17T04:55:05;98889.69;;;6.76;100.00
70445;BME280;57902;49.638;11.070;2023-02-17T04:57:31;98887.97;;;6.75;100.00
70445;BME280;57902;49.638;11.070;2023-02-17T04:59:58;98878.56;;;6.75;100.00
70445;BME280;57902;49.638;11.070;2023-02-17T05:02:24;98879.44;;;6.76;100.00
70445;BME280;57902;49.638;11.070;2023-02-17T05:04:52;98872.56;;;6.79;99.51
70445;BME280;57902;49.638;11.070;2023-02-17T05:07:19;98881.13;;;6.78;99.58
70445;BME280;57902;49.638;11.070;2023-02-17T05:09:46;98878.56;;;6.81;99.19
70445;BME280;57902;49.638;11.070;2023-02-17T05:12:12;98873.38;;;6.88;99.05
70445;BME280;57902;49.638;11.070;2023-02-17T05:14:39;98873.44;;;6.81;100.00
70445;BME280;57902;49.638;11.070;2023-02-17T05:17:08;98873.41;;;6.85;99.47
70445;BME280;57902;49.638;11.070;2023-02-17T05:19:35;98869.09;;;6.91;99.73
70445;BME280;57902;49.638;11.070;2023-02-17T05:22:01;98874.22;;;6.87;100.00
70445;BME280;57902;49.638;11.070;2023-02-17T05:24:28;98872.53;;;6.86;100.00
70445;BME280;57902;49.638;11.070;2023-02-17T05:26:54;98871.63;;;6.93;99.33
70445;BME280;57902;49.638;11.070;2023-02-17T05:29:21;98871.63;;;6.93;98.80
70445;BME280;57902;49.638;11.070;2023-02-17T05:31:48;98870.81;;;6.91;98.82
70445;BME280;57902;49.638;11.070;2023-02-17T05:34:15;98868.22;;;6.94;98.21
70445;BME280;57902;49.638;11.070;2023-02-17T05:36:41;98866.50;;;6.93;97.69
70445;BME280;57902;49.638;11.070;2023-02-17T05:39:07;98873.31;;;6.97;97.45
70445;BME280;57902;49.638;11.070;2023-02-17T05:41:34;98875.88;;;6.98;97.07
70445;BME280;57902;49.638;11.070;2023-02-17T05:44:00;98869.03;;;7.05;95.61
70445;BME280;57902;49.638;11.070;2023-02-17T05:46:27;98862.16;;;7.06;94.67
70445;BME280;57902;49.638;11.070;2023-02-17T05:48:53;98865.59;;;7.09;94.18
70445;BME280;57902;49.638;11.070;2023-02-17T05:51:20;98868.94;;;7.16;93.94
70445;BME280;57902;49.638;11.070;2023-02-17T05:53:46;98868.13;;;7.14;93.30
70445;BME280;57902;49.638;11.070;2023-02-17T05:56:12;98869.81;;;7.16;94.03
70445;BME280;57902;49.638;11.070;2023-02-17T05:58:39;98876.66;;;7.14;94.11
70445;BME280;57902;49.638;11.070;2023-02-17T06:01:10;98879.19;;;7.17;94.33
70445;BME280;57902;49.638;11.070;2023-02-17T06:03:37;98887.75;;;7.20;95.03
70445;BME280;57902;49.638;11.070;2023-02-17T06:06:04;98880.88;;;7.20;96.00
70445;BME280;57902;49.638;11.070;2023-02-17T06:08:31;98885.13;;;7.26;95.86
70445;BME280;57902;49.638;11.070;2023-02-17T06:10:58;98891.13;;;7.23;96.84
70445;BME280;57902;49.638;11.070;2023-02-17T06:13:24;98889.38;;;7.33;96.69
70445;BME280;57902;49.638;11.070;2023-02-17T06:15:51;98884.22;;;7.34;96.81
70445;BME280;57902;49.638;11.070;2023-02-17T06:18:17;98883.34;;;7.39;97.76
70445;BME280;57902;49.638;11.070;2023-02-17T06:20:44;98880.66;;;7.52;98.50
70445;BME280;57902;49.638;11.070;2023-02-17T06:23:10;98883.97;;;7.68;98.82
70445;BME280;57902;49.638;11.070;2023-02-17T06:25:37;98880.41;;;7.82;99.78
70445;BME280;57902;49.638;11.070;2023-02-17T06:28:03;98873.47;;;7.93;99.76
70445;BME280;57902;49.638;11.070;2023-02-17T06:30:33;98876.84;;;7.98;99.80
70445;BME280;57902;49.638;11.070;2023-02-17T06:32:59;98876.81;;;8.00;99.82
70445;BME280;57902;49.638;11.070;2023-02-17T06:35:26;98875.91;;;8.07;99.75
70445;BME280;57902;49.638;11.070;2023-02-17T06:37:52;98874.19;;;8.08;99.76
70445;BME280;57902;49.638;11.070;2023-02-17T06:40:19;98878.28;;;8.26;99.04
70445;BME280;57902;49.638;11.070;2023-02-17T06:42:45;98873.13;;;8.29;98.57
70445;BME280;57902;49.638;11.070;2023-02-17T06:45:12;98886.81;;;8.28;99.05
70445;BME280;57902;49.638;11.070;2023-02-17T06:47:38;98890.25;;;8.30;98.82
70445;BME280;57902;49.638;11.070;2023-02-17T06:50:05;98884.25;;;8.28;99.21
70445;BME280;57902;49.638;11.070;2023-02-17T06:52:32;98889.34;;;8.32;99.30
70445;BME280;57902;49.638;11.070;2023-02-17T06:54:59;98891.06;;;8.32;99.21
70445;BME280;57902;49.638;11.070;2023-02-17T06:57:25;98885.00;;;8.39;98.88
70445;BME280;57902;49.638;11.070;2023-02-17T06:59:52;98893.50;;;8.43;98.99
70445;BME280;57902;49.638;11.070;2023-02-17T07:02:19;98899.50;;;8.46;98.70
70445;BME280;57902;49.638;11.070;2023-02-17T07:04:45;98900.28;;;8.53;98.56
70445;BME280;57902;49.638;11.070;2023-02-17T07:07:12;98892.63;;;8.48;98.43
70445;BME280;57902;49.638;11.070;2023-02-17T07:09:39;98887.41;;;8.57;98.45
70445;BME280;57902;49.638;11.070;2023-02-17T07:12:06;98887.44;;;8.51;98.80
70445;BME280;57902;49.638;11.070;2023-02-17T07:14:34;98890.00;;;8.53;98.99
70445;BME280;57902;49.638;11.070;2023-02-17T07:17:01;98886.59;;;8.52;99.45
70445;BME280;57902;49.638;11.070;2023-02-17T07:19:27;98880.56;;;8.55;99.85
70445;BME280;57902;49.638;11.070;2023-02-17T07:21:54;98896.81;;;8.57;99.33
70445;BME280;57902;49.638;11.070;2023-02-17T07:24:21;98889.97;;;8.54;99.75
70445;BME280;57902;49.638;11.070;2023-02-17T07:26:48;98886.47;;;8.62;99.45
70445;BME280;57902;49.638;11.070;2023-02-17T07:29:14;98894.22;;;8.58;99.31
70445;BME280;57902;49.638;11.070;2023-02-17T07:31:40;98897.69;;;8.57;99.84
70445;BME280;57902;49.638;11.070;2023-02-17T07:34:07;98889.91;;;8.62;99.39
70445;BME280;57902;49.638;11.070;2023-02-17T07:36:34;98902.81;;;8.57;100.00
70445;BME280;57902;49.638;11.070;2023-02-17T07:39:01;98901.91;;;8.60;99.97
70445;BME280;57902;49.638;11.070;2023-02-17T07:41:28;98894.13;;;8.65;99.32
70445;BME280;57902;49.638;11.070;2023-02-17T07:43:56;98906.91;;;8.74;99.05
70445;BME280;57902;49.638;11.070;2023-02-17T07:46:24;98900.91;;;8.72;98.78
70445;BME280;57902;49.638;11.070;2023-02-17T07:48:50;98906.00;;;8.75;98.80
70445;BME280;57902;49.638;11.070;2023-02-17T07:51:19;98908.50;;;8.83;98.93
70445;BME280;57902;49.638;11.070;2023-02-17T07:53:47;98913.72;;;8.77;98.79
70445;BME280;57902;49.638;11.070;2023-02-17T07:56:15;98914.44;;;8.86;99.50
70445;BME280;57902;49.638;11.070;2023-02-17T07:58:43;98922.25;;;8.80;99.81
70445;BME280;57902;49.638;11.070;2023-02-17T08:01:13;98921.41;;;8.80;99.78
70445;BME280;57902;49.638;11.070;2023-02-17T08:03:40;98927.44;;;8.75;100.00
70445;BME280;57902;49.638;11.070;2023-02-17T08:06:17;98924.00;;;8.77;100.00
70445;BME280;57902;49.638;11.070;2023-02-17T08:08:45;98928.16;;;8.88;100.00
70445;BME280;57902;49.638;11.070;2023-02-17T08:11:30;98923.00;;;8.88;100.00
70445;BME280;57902;49.638;11.070;2023-02-17T08:14:15;98922.13;;;8.89;100.00
70445;BME280;57902;49.638;11.070;2023-02-17T08:16:42;98929.84;;;8.89;100.00
70445;BME280;57902;49.638;11.070;2023-02-17T08:19:08;98929.81;;;8.91;100.00
70445;BME280;57902;49.638;11.070;2023-02-17T08:21:35;98932.38;;;8.92;100.00
70445;BME280;57902;49.638;11.070;2023-02-17T08:24:02;98929.88;;;8.86;100.00
70445;BME280;57902;49.638;11.070;2023-02-17T08:26:28;98922.94;;;8.95;100.00
70445;BME280;57902;49.638;11.070;2023-02-17T08:28:55;98929.78;;;8.92;100.00
70445;BME280;57902;49.638;11.070;2023-02-17T08:33:50;98923.00;;;8.88;100.00
70445;BME280;57902;49.638;11.070;2023-02-17T08:36:17;98924.66;;;8.92;100.00
70445;BME280;57902;49.638;11.070;2023-02-17T08:38:48;98922.06;;;8.94;100.00
70445;BME280;57902;49.638;11.070;2023-02-17T08:41:51;98926.31;;;8.97;100.00
70445;BME280;57902;49.638;11.070;2023-02-17T08:44:19;98919.50;;;8.92;100.00
70445;BME280;57902;49.638;11.070;2023-02-17T08:46:48;98938.31;;;8.98;100.00
70445;BME280;57902;49.638;11.070;2023-02-17T08:49:17;98929.69;;;9.02;100.00
70445;BME280;57902;49.638;11.070;2023-02-17T08:51:44;98938.34;;;8.95;100.00
70445;BME280;57902;49.638;11.070;2023-02-17T08:54:11;98937.47;;;8.94;100.00
70445;BME280;57902;49.638;11.070;2023-02-17T08:56:41;98939.16;;;8.98;100.00
70445;BME280;57902;49.638;11.070;2023-02-17T08:59:11;98933.13;;;9.01;100.00
70445;BME280;57902;49.638;11.070;2023-02-17T09:01:38;98937.50;;;8.96;100.00
70445;BME280;57902;49.638;11.070;2023-02-17T09:04:06;98933.22;;;8.95;100.00
70445;BME280;57902;49.638;11.070;2023-02-17T09:06:40;98932.34;;;8.97;100.00
70445;BME280;57902;49.638;11.070;2023-02-17T09:09:09;98924.56;;;9.02;100.00
70445;BME280;57902;49.638;11.070;2023-02-17T09:11:37;98932.25;;;9.02;100.00
70445;BME280;57902;49.638;11.070;2023-02-17T09:14:04;98920.28;;;9.01;100.00
70445;BME280;57902;49.638;11.070;2023-02-17T09:16:31;98924.50;;;9.05;100.00
70445;BME280;57902;49.638;11.070;2023-02-17T09:18:58;98916.78;;;9.05;100.00
70445;BME280;57902;49.638;11.070;2023-02-17T09:21:24;98919.38;;;9.03;100.00
70445;BME280;57902;49.638;11.070;2023-02-17T09:23:51;98912.47;;;9.07;100.00
70445;BME280;57902;49.638;11.070;2023-02-17T09:26:23;98910.78;;;9.06;100.00
70445;BME280;57902;49.638;11.070;2023-02-17T09:28:49;98912.38;;;9.13;100.00
70445;BME280;57902;49.638;11.070;2023-02-17T09:31:19;98921.06;;;9.06;100.00
70445;BME280;57902;49.638;11.070;2023-02-17T09:33:47;98909.97;;;9.02;100.00
70445;BME280;57902;49.638;11.070;2023-02-17T09:36:16;98925.38;;;9.04;100.00
70445;BME280;57902;49.638;11.070;2023-02-17T09:38:44;98916.84;;;9.02;100.00
70445;BME280;57902;49.638;11.070;2023-02-17T09:43:43;98915.06;;;9.05;100.00
70445;BME280;57902;49.638;11.070;2023-02-17T09:46:25;98918.50;;;9.06;100.00
70445;BME280;57902;49.638;11.070;2023-02-17T09:48:56;98925.34;;;9.05;100.00
70445;BME280;57902;49.638;11.070;2023-02-17T09:54:05;98930.50;;;9.04;100.00
70445;BME280;57902;49.638;11.070;2023-02-17T09:56:37;98927.94;;;9.04;100.00
70445;BME280;57902;49.638;11.070;2023-02-17T09:59:12;98926.22;;;9.03;100.00
70445;BME280;57902;49.638;11.070;2023-02-17T10:01:43;98930.41;;;9.11;100.00
70445;BME280;57902;49.638;11.070;2023-02-17T10:04:22;98917.66;;;9.04;100.00
70445;BME280;57902;49.638;11.070;2023-02-17T10:07:08;98919.38;;;9.03;100.00
70445;BME280;57902;49.638;11.070;2023-02-17T10:09:41;98916.72;;;9.09;100.00
70445;BME280;57902;49.638;11.070;2023-02-17T10:12:18;98915.06;;;9.05;100.00
70445;BME280;57902;49.638;11.070;2023-02-17T10:15:00;98919.38;;;9.03;100.00
70445;BME280;57902;49.638;11.070;2023-02-17T10:17:36;98918.41;;;9.14;100.00
70445;BME280;57902;49.638;11.070;2023-02-17T10:20:10;98918.41;;;9.14;100.00
70445;BME280;57902;49.638;11.070;2023-02-17T10:22:50;98918.31;;;9.18;100.00
70445;BME280;57902;49.638;11.070;2023-02-17T10:25:31;98919.13;;;9.20;100.00
70445;BME280;57902;49.638;11.070;2023-02-17T10:28:08;98917.41;;;9.24;100.00
70445;BME280;57902;49.638;11.070;2023-02-17T10:33:23;98924.22;;;9.26;100.00
70445;BME280;57902;49.638;11.070;2023-02-17T10:35:53;98915.56;;;9.31;100.00
70445;BME280;57902;49.638;11.070;2023-02-17T10:38:38;98918.94;;;9.36;100.00
70445;BME280;57902;49.638;11.070;2023-02-17T10:41:11;98907.69;;;9.43;100.00
70445;BME280;57902;49.638;11.070;2023-02-17T10:43:39;98911.06;;;9.45;100.00
70445;BME280;57902;49.638;11.070;2023-02-17T10:46:07;98909.38;;;9.44;100.00
70445;BME280;57902;49.638;11.070;2023-02-17T10:48:38;98909.38;;;9.45;100.00
70445;BME280;57902;49.638;11.070;2023-02-17T10:51:13;98906.78;;;9.44;100.00
70445;BME280;57902;49.638;11.070;2023-02-17T10:53:40;98910.16;;;9.49;100.00
70445;BME280;57902;49.638;11.070;2023-02-17T10:56:31;98897.94;;;9.63;100.00
70445;BME280;57902;49.638;11.070;2023-02-17T10:59:22;98894.50;;;9.61;100.00
70445;BME280;57902;49.638;11.070;2023-02-17T11:01:50;98885.81;;;9.69;100.00
70445;BME280;57902;49.638;11.070;2023-02-17T11:04:17;98887.44;;;9.74;100.00
70445;BME280;57902;49.638;11.070;2023-02-17T11:06:49;98877.22;;;9.71;100.00
70445;BME280;57902;49.638;11.070;2023-02-17T11:09:28;98875.53;;;9.69;100.00
70445;BME280;57902;49.638;11.070;2023-02-17T11:12:09;98871.13;;;9.75;100.00
70445;BME280;57902;49.638;11.070;2023-02-17T11:14:37;98871.97;;;9.76;100.00
70445;BME280;57902;49.638;11.070;2023-02-17T11:17:28;98867.63;;;9.81;100.00
70445;BME280;57902;49.638;11.070;2023-02-17T11:20:00;98857.19;;;9.87;100.00
70445;BME280;57902;49.638;11.070;2023-02-17T11:25:20;98861.47;;;9.88;100.00
70445;BME280;57902;49.638;11.070;2023-02-17T11:28:02;98862.25;;;9.92;100.00
70445;BME280;57902;49.638;11.070;2023-02-17T11:30:30;98856.34;;;9.88;100.00
70445;BME280;57902;49.638;11.070;2023-02-17T11:32:57;98864.69;;;9.99;100.00
70445;BME280;57902;49.638;11.070;2023-02-17T11:35:27;98851.75;;;10.03;100.00
70445;BME280;57902;49.638;11.070;2023-02-17T11:38:01;98858.69;;;10.01;100.00
70445;BME280;57902;49.638;11.070;2023-02-17T11:40:30;98852.72;;;9.98;100.00
70445;BME280;57902;49.638;11.070;2023-02-17T11:42:58;98850.09;;;10.00;100.00
70445;BME280;57902;49.638;11.070;2023-02-17T11:45:29;98854.31;;;10.04;100.00
70445;BME280;57902;49.638;11.070;2023-02-17T11:56:27;98861.44;;;9.91;100.00
70445;BME280;57902;49.638;11.070;2023-02-17T11:59:02;98849.47;;;9.87;100.00
70445;BME280;57902;49.638;11.070;2023-02-17T12:04:30;98848.59;;;9.88;100.00
70445;BME280;57902;49.638;11.070;2023-02-17T12:07:26;98846.69;;;9.98;100.00
70445;BME280;57902;49.638;11.070;2023-02-17T12:12:54;98846.13;;;9.82;100.00
70445;BME280;57902;49.638;11.070;2023-02-17T12:15:30;98851.84;;;9.98;100.00
70445;BME280;57902;49.638;11.070;2023-02-17T12:23:51;98851.25;;;9.82;100.00
70445;BME280;57902;49.638;11.070;2023-02-17T12:26:45;98853.88;;;9.80;100.00
70445;BME280;57902;49.638;11.070;2023-02-17T12:29:28;98848.56;;;9.91;100.00
70445;BME280;57902;49.638;11.070;2023-02-17T12:34:36;98849.41;;;9.90;100.00
70445;BME280;57902;49.638;11.070;2023-02-17T12:42:51;98851.75;;;10.03;100.00
70445;BME280;57902;49.638;11.070;2023-02-17T12:45:25;98843.25;;;9.99;100.00
70445;BME280;57902;49.638;11.070;2023-02-17T12:48:03;98845.00;;;9.98;100.00
70445;BME280;57902;49.638;11.070;2023-02-17T12:50:40;98846.00;;;9.90;100.00
70445;BME280;57902;49.638;11.070;2023-02-17T12:53:17;98842.41;;;9.98;100.00
70445;BME280;57902;49.638;11.070;2023-02-17T12:55:54;98840.59;;;10.04;100.00
70445;BME280;57902;49.638;11.070;2023-02-17T12:58:27;98844.00;;;10.06;100.00
70445;BME280;57902;49.638;11.070;2023-02-17T13:01:01;98843.09;;;10.07;100.00
70445;BME280;57902;49.638;11.070;2023-02-17T13:03:32;98841.31;;;10.12;100.00
70445;BME280;57902;49.638;11.070;2023-02-17T13:08:55;98842.13;;;10.14;100.00
70445;BME280;57902;49.638;11.070;2023-02-17T13:11:29;98832.59;;;10.19;100.00
70445;BME280;57902;49.638;11.070;2023-02-17T13:13:56;98827.38;;;10.22;100.00
70445;BME280;57902;49.638;11.070;2023-02-17T13:16:24;98820.56;;;10.18;100.00
70445;BME280;57902;49.638;11.070;2023-02-17T13:18:51;98825.56;;;10.26;100.00
70445;BME280;57902;49.638;11.070;2023-02-17T13:24:15;98822.19;;;10.24;100.00
70445;BME280;57902;49.638;11.070;2023-02-17T13:26:56;98800.66;;;10.26;100.00
70445;BME280;57902;49.638;11.070;2023-02-17T13:31:50;98796.34;;;10.27;100.00
70445;BME280;57902;49.638;11.070;2023-02-17T13:36:53;98782.75;;;10.19;100.00
70445;BME280;57902;49.638;11.070;2023-02-17T13:41:57;98788.50;;;10.35;100.00
70445;BME280;57902;49.638;11.070;2023-02-17T13:44:46;98787.41;;;10.45;100.00
70445;BME280;57902;49.638;11.070;2023-02-17T13:47:23;98795.69;;;10.61;100.00
70445;BME280;57902;49.638;11.070;2023-02-17T13:49:55;98790.41;;;10.65;100.00
70445;BME280;57902;49.638;11.070;2023-02-17T13:52:25;98794.63;;;10.70;100.00
70445;BME280;57902;49.638;11.070;2023-02-17T13:54:56;98805.75;;;10.72;100.00
70445;BME280;57902;49.638;11.070;2023-02-17T13:57:24;98796.19;;;10.77;100.00
70445;BME280;57902;49.638;11.070;2023-02-17T13:59:52;98803.81;;;10.81;100.00
70445;BME280;57902;49.638;11.070;2023-02-17T14:02:19;98796.16;;;10.78;100.00
70445;BME280;57902;49.638;11.070;2023-02-17T14:05:10;98795.31;;;10.78;100.00
70445;BME280;57902;49.638;11.070;2023-02-17T14:07:44;98790.00;;;10.85;100.00
70445;BME280;57902;49.638;11.070;2023-02-17T14:10:21;98806.22;;;10.89;100.00
70445;BME280;57902;49.638;11.070;2023-02-17T14:12:48;98800.22;;;10.89;100.00
70445;BME280;57902;49.638;11.070;2023-02-17T14:15:17;98806.91;;;10.97;99.55
70445;BME280;57902;49.638;11.070;2023-02-17T14:17:44;98808.66;;;10.97;99.30
70445;BME280;57902;49.638;11.070;2023-02-17T14:20:34;98810.28;;;10.99;98.89